100LL.CA
Aviation Fuel Pricing for Canadians
Please upgrade your browser - Tested with IE9, FireFox, Chrome, Safari

Fuel Prices Airport Info Airport List METAR / TAF Kneeboard RSS

Reference Airport: Langley Regional, BC
N 49 06 03   W 122 37 51

Enter a list of
Airport Idents:
Sort Method: As Entered    By Ident   

CYVR
METAR CYVR 290300Z 17005KT 100V260 30SM FEW240 20/12 A3001 RMK CI1 CI TR SLP165 DENSITY ALT 500FT
TAF CYVR 290239Z 2903/3006 19005KT P6SM FEW040 BECMG 2904/2906 09005KT FM291700 26010KT P6SM SCT140 FM300500 VRB03KT P6SM SKC RMK NXT FCST BY 290600Z
CYXX
METAR CYXX 290300Z 25006KT 20SM SCT060 SCT120 BKN220 20/12 A3002 RMK CU4AC1CI1 AC TR SLP167 DENSITY ALT 700FT
TAF CYXX 282338Z 2900/2924 22008KT P6SM FEW030 FM290500 VRB03KT P6SM SCT240 FM291800 24008KT P6SM SCT140 RMK NXT FCST BY 290600Z
KBLI
METAR KBLI 290353Z 17005KT 10SM FEW065 18/13 A3003 RMK AO2 SLP174 T01830133
TAF KBLI 282320Z 2900/2924 17007KT P6SM SKC FM291000 VRB03KT P6SM SKC FM291400 17005KT P6SM SKC FM292000 20007KT P6SM SKC